Time;durP1;ratioP1;P1;durP2;ratioP2;P2;SDS_P1;SDS_P2;PMS_P1;PMS_P2;Temp;Humidity;BMP_temperature;BMP_pressure;BME280_temperature;BME280_humidity;BME280_pressure;Samples;Min_cycle;Max_cycle;Signal;HPM_P1;HPM_P2
2022/09/11 00:01:11;;;;;;;22.50;20.27;;;16.20;88.70;;;;;;5052804;28;20051;-73
2022/09/11 00:03:36;;;;;;;20.88;18.80;;;16.20;88.60;;;;;;5052830;28;20048;-75
2022/09/11 00:06:05;;;;;;;18.55;16.75;;;16.10;88.60;;;;;;5036193;28;20045;-74
2022/09/11 00:08:31;;;;;;;20.83;18.83;;;16.10;88.50;;;;;;5052943;28;20064;-72
2022/09/11 00:11:07;;;;;;;25.05;18.98;;;16.10;88.60;;;;;;5052551;28;20425;-75
2022/09/11 00:13:34;;;;;;;20.58;18.30;;;16.10;88.60;;;;;;5052923;28;20099;-75
2022/09/11 00:16:06;;;;;;;18.67;16.88;;;16.00;88.60;;;;;;5052482;28;20485;-73
2022/09/11 00:18:34;;;;;;;18.40;16.05;;;16.00;88.70;;;;;;5052476;28;20033;-75
2022/09/11 00:21:01;;;;;;;17.88;15.65;;;16.00;88.70;;;;;;5052739;28;20057;-75
2022/09/11 00:23:27;;;;;;;22.52;16.15;;;16.00;88.70;;;;;;5052357;28;20065;-76
2022/09/11 00:25:52;;;;;;;17.55;15.23;;;16.00;88.70;;;;;;5052298;28;20044;-75
2022/09/11 00:28:21;;;;;;;17.88;14.20;;;16.00;88.70;;;;;;5052601;28;20041;-75
2022/09/11 00:31:06;;;;;;;15.60;13.48;;;15.90;88.70;;;;;;5052227;28;20045;-73
2022/09/11 00:33:32;;;;;;;17.25;13.13;;;15.90;88.70;;;;;;5052282;28;20168;-75
2022/09/11 00:36:18;;;;;;;17.05;14.88;;;15.90;88.70;;;;;;5052157;28;20512;-74
2022/09/11 00:38:45;;;;;;;15.07;13.48;;;15.80;88.70;;;;;;5052211;28;20044;-75
2022/09/11 00:41:32;;;;;;;16.60;14.40;;;15.80;88.80;;;;;;5052117;28;20055;-72
2022/09/11 00:44:06;;;;;;;14.75;13.15;;;15.80;88.90;;;;;;5036272;28;20132;-76
2022/09/11 00:46:42;;;;;;;15.32;13.77;;;15.70;88.90;;;;;;5051972;28;20147;-77
2022/09/11 00:49:41;;;;;;;15.77;13.73;;;15.70;88.90;;;;;;5051926;28;20116;-72
2022/09/11 00:52:18;;;;;;;13.50;11.82;;;15.60;88.80;;;;;;5037466;28;20068;-73
2022/09/11 00:54:55;;;;;;;16.55;12.10;;;15.60;88.70;;;;;;5051905;28;20072;-74
2022/09/11 00:57:23;;;;;;;15.40;12.52;;;15.60;88.70;;;;;;5051886;28;20079;-74
2022/09/11 00:59:53;;;;;;;13.95;12.50;;;15.50;88.60;;;;;;5052091;28;20045;-75
2022/09/11 01:02:21;;;;;;;13.55;12.13;;;15.50;88.60;;;;;;5051748;28;20080;-76
2022/09/11 01:04:49;;;;;;;13.57;12.15;;;15.50;88.50;;;;;;5051735;28;20049;-75
2022/09/11 01:07:16;;;;;;;13.65;11.88;;;15.50;88.50;;;;;;5051726;28;20053;-75
2022/09/11 01:09:42;;;;;;;12.27;10.98;;;15.50;88.40;;;;;;5035336;28;20378;-74
2022/09/11 01:12:17;;;;;;;14.65;11.60;;;15.40;88.40;;;;;;5051689;28;20519;-75
2022/09/11 01:14:59;;;;;;;11.88;10.43;;;15.40;88.30;;;;;;5051627;28;20051;-74
2022/09/11 01:17:42;;;;;;;16.48;12.70;;;15.40;88.30;;;;;;5051868;28;20143;-76
2022/09/11 01:20:24;;;;;;;14.25;12.63;;;15.40;88.40;;;;;;5051671;28;20044;-73
2022/09/11 01:23:27;;;;;;;16.02;11.85;;;15.40;88.50;;;;;;5051472;28;20390;-76
2022/09/11 01:26:35;;;;;;;13.85;12.25;;;15.40;88.50;;;;;;5051499;28;20087;-76
2022/09/11 01:29:03;;;;;;;14.13;11.85;;;15.30;88.50;;;;;;5014890;28;20063;-75
2022/09/11 01:31:39;;;;;;;14.95;12.60;;;15.30;88.40;;;;;;5051359;28;20559;-76
2022/09/11 01:34:22;;;;;;;15.68;12.68;;;15.30;88.40;;;;;;5051501;28;20186;-76
2022/09/11 01:37:02;;;;;;;14.50;12.10;;;15.20;88.40;;;;;;5051492;28;20052;-76
2022/09/11 01:39:37;;;;;;;15.00;11.93;;;15.20;88.40;;;;;;5051374;28;20512;-77
2022/09/11 01:42:07;;;;;;;13.77;12.32;;;15.20;88.40;;;;;;5051407;28;20041;-75
2022/09/11 01:44:38;;;;;;;15.13;12.30;;;15.10;88.40;;;;;;5034789;28;20045;-76
2022/09/11 01:47:05;;;;;;;14.43;12.25;;;15.00;88.40;;;;;;5051870;28;20044;-73
2022/09/11 01:49:46;;;;;;;15.80;13.52;;;15.00;88.40;;;;;;5051498;28;20052;-74
2022/09/11 01:52:37;;;;;;;14.77;13.20;;;15.00;88.40;;;;;;5051313;28;20040;-74
2022/09/11 01:55:17;;;;;;;17.05;13.05;;;15.00;88.40;;;;;;5037495;28;20378;-76
2022/09/11 01:58:08;;;;;;;14.55;12.40;;;15.00;88.40;;;;;;5051525;28;20076;-76
2022/09/11 02:00:36;;;;;;;16.35;13.30;;;15.00;88.40;;;;;;5051747;28;20053;-72
2022/09/11 02:03:14;;;;;;;13.43;12.02;;;14.90;88.40;;;;;;5055103;28;20045;-75
2022/09/11 02:05:50;;;;;;;16.17;14.55;;;14.90;88.50;;;;;;5055320;28;20456;-74
2022/09/11 02:08:20;;;;;;;15.23;13.30;;;14.90;88.50;;;;;;5038578;28;20049;-74
2022/09/11 02:10:53;;;;;;;15.90;13.05;;;14.80;88.60;;;;;;5054860;28;20158;-74
2022/09/11 02:13:40;;;;;;;14.57;13.02;;;14.80;88.60;;;;;;5054837;28;20051;-73
2022/09/11 02:16:22;;;;;;;16.00;14.23;;;14.80;88.60;;;;;;5055084;28;20103;-73
2022/09/11 02:19:01;;;;;;;15.43;13.75;;;14.70;88.80;;;;;;5054758;28;20078;-75
2022/09/11 02:21:28;;;;;;;15.88;14.07;;;14.60;88.90;;;;;;5049307;28;20112;-75
2022/09/11 02:23:54;;;;;;;16.60;14.40;;;14.60;88.90;;;;;;5041141;28;20062;-74
2022/09/11 02:26:26;;;;;;;16.45;14.70;;;14.60;88.90;;;;;;5041199;28;20486;-75
2022/09/11 02:28:53;;;;;;;13.80;12.55;;;14.60;89.00;;;;;;5041377;28;20047;-76
2022/09/11 02:31:19;;;;;;;13.88;12.52;;;14.50;89.10;;;;;;5040789;28;20063;-72
2022/09/11 02:33:46;;;;;;;14.38;12.90;;;14.50;89.00;;;;;;5040792;28;20104;-74
2022/09/11 02:36:30;;;;;;;15.20;13.05;;;14.50;89.20;;;;;;5040653;28;20100;-72
2022/09/11 02:39:16;;;;;;;;;;;14.50;89.30;;;;;;5041484;28;20046;-77
2022/09/11 02:42:02;;;;;;;16.70;12.88;;;14.50;89.40;;;;;;5020148;28;19925;-74
2022/09/11 02:44:48;;;;;;;14.55;12.82;;;14.50;89.20;;;;;;5040567;28;20609;-75
2022/09/11 02:47:52;;;;;;;14.07;12.40;;;14.50;89.20;;;;;;5040736;28;20038;-74
2022/09/11 02:50:17;;;;;;;14.52;12.88;;;14.40;89.20;;;;;;5040468;28;20520;-74
2022/09/11 02:52:43;;;;;;;13.77;12.40;;;14.40;89.20;;;;;;5040417;28;20093;-75
2022/09/11 02:56:01;;;;;;;15.77;13.63;;;14.40;89.20;;;;;;5040200;28;20093;-76
2022/09/11 02:59:08;;;;;;;15.57;13.85;;;14.40;89.30;;;;;;5035661;28;20054;-75
2022/09/11 03:02:09;;;;;;;14.57;13.10;;;14.40;89.30;;;;;;5039926;28;20054;-75
2022/09/11 03:04:36;;;;;;;16.10;14.50;;;14.40;89.30;;;;;;4998600;28;20055;-75
2022/09/11 03:07:02;;;;;;;14.27;12.82;;;14.40;89.20;;;;;;5040542;28;20050;-72
2022/09/11 03:09:28;;;;;;;14.70;13.18;;;14.40;89.20;;;;;;5023567;28;20047;-74
2022/09/11 03:11:54;;;;;;;16.23;13.40;;;14.40;89.20;;;;;;5039778;28;20043;-77
2022/09/11 03:14:19;;;;;;;12.95;11.65;;;14.30;89.10;;;;;;5040210;28;20043;-75
2022/09/11 03:16:45;;;;;;;15.77;14.00;;;14.30;89.10;;;;;;4973133;28;20391;-75
2022/09/11 03:19:11;;;;;;;16.50;13.85;;;14.30;89.00;;;;;;5040156;28;20100;-71
2022/09/11 03:21:37;;;;;;;16.05;13.05;;;14.30;89.00;;;;;;5039703;28;20081;-75
2022/09/11 03:24:05;;;;;;;13.98;12.48;;;14.30;89.00;;;;;;5040209;28;20456;-74
2022/09/11 03:26:34;;;;;;;16.80;12.38;;;14.30;89.10;;;;;;5006799;28;20078;-74
2022/09/11 03:29:01;;;;;;;12.80;11.60;;;14.30;89.10;;;;;;5040103;28;20047;-73
2022/09/11 03:31:27;;;;;;;17.30;13.50;;;14.20;89.10;;;;;;5039691;28;20086;-73
2022/09/11 03:33:53;;;;;;;14.23;12.50;;;14.20;89.00;;;;;;5023432;28;20035;-76
2022/09/11 03:36:19;;;;;;;13.95;11.75;;;14.20;89.30;;;;;;5023428;28;20092;-74
2022/09/11 03:38:46;;;;;;;13.27;11.07;;;14.20;89.20;;;;;;5023250;28;20488;-75
2022/09/11 03:41:12;;;;;;;13.82;11.93;;;14.10;89.30;;;;;;5039609;28;20108;-75
2022/09/11 03:43:38;;;;;;;11.57;10.32;;;14.10;89.40;;;;;;5039490;28;20054;-75
2022/09/11 03:46:04;;;;;;;11.60;10.50;;;14.00;89.60;;;;;;5039474;28;20046;-74
2022/09/11 03:48:30;;;;;;;12.27;10.98;;;14.00;89.50;;;;;;5039692;28;20042;-74
2022/09/11 03:50:57;;;;;;;14.05;11.50;;;14.00;89.50;;;;;;5039369;28;20403;-74
2022/09/11 03:53:24;;;;;;;11.80;10.63;;;14.00;89.50;;;;;;5039253;28;20057;-73
2022/09/11 03:55:50;;;;;;;12.25;11.02;;;14.00;89.60;;;;;;5039404;28;20051;-72
2022/09/11 03:58:19;;;;;;;12.05;10.85;;;14.00;89.70;;;;;;5039198;28;20045;-75
2022/09/11 04:00:46;;;;;;;11.73;10.52;;;14.00;89.80;;;;;;5039308;28;20553;-75
2022/09/11 04:03:16;;;;;;;9.80;7.38;;;14.00;89.70;;;;;;5039285;28;20050;-75
2022/09/11 04:05:54;;;;;;;13.38;12.00;;;14.00;89.70;;;;;;5039109;28;20047;-75
2022/09/11 04:08:19;;;;;;;14.05;12.73;;;14.00;89.60;;;;;;5039220;28;20042;-75
2022/09/11 04:10:45;;;;;;;13.70;12.30;;;14.00;89.60;;;;;;5039093;28;20071;-76
2022/09/11 04:13:11;;;;;;;13.82;12.50;;;14.00;89.70;;;;;;5038997;28;20088;-73
2022/09/11 04:15:36;;;;;;;13.18;11.88;;;14.00;89.80;;;;;;5022505;28;20074;-74
2022/09/11 04:18:07;;;;;;;14.13;12.10;;;14.00;89.80;;;;;;5038966;28;20455;-73
2022/09/11 04:20:32;;;;;;;13.50;11.57;;;14.00;89.80;;;;;;5039126;28;20445;-73
2022/09/11 04:22:58;;;;;;;12.63;11.23;;;14.00;89.90;;;;;;5038323;28;20054;-76
2022/09/11 04:25:24;;;;;;;12.48;11.20;;;14.00;89.90;;;;;;5038559;28;20046;-74
2022/09/11 04:27:50;;;;;;;12.43;11.32;;;14.00;89.80;;;;;;5039030;28;20119;-75
2022/09/11 04:30:16;;;;;;;11.65;10.50;;;13.90;89.80;;;;;;5038853;28;20495;-71
2022/09/11 04:32:41;;;;;;;13.63;12.30;;;13.90;89.80;;;;;;5038710;28;20039;-76
2022/09/11 04:35:07;;;;;;;11.25;10.13;;;14.00;89.90;;;;;;5022049;28;20077;-75
2022/09/11 04:37:34;;;;;;;13.32;12.02;;;14.00;90.00;;;;;;5038496;28;20046;-72
2022/09/11 04:40:00;;;;;;;12.43;11.23;;;14.00;90.00;;;;;;5022193;28;20610;-75
2022/09/11 04:42:25;;;;;;;13.95;11.68;;;14.00;90.00;;;;;;5038579;28;20130;-76
2022/09/11 04:44:51;;;;;;;12.32;11.05;;;14.00;90.00;;;;;;5038589;28;20065;-74
2022/09/11 04:47:17;;;;;;;13.27;12.02;;;14.00;90.00;;;;;;5038342;28;20125;-75
2022/09/11 04:49:45;;;;;;;13.98;12.60;;;14.00;90.00;;;;;;5038180;28;20089;-77
2022/09/11 04:52:11;;;;;;;13.15;11.85;;;14.00;90.10;;;;;;5021800;28;20069;-76
2022/09/11 04:54:37;;;;;;;14.38;12.45;;;14.00;90.10;;;;;;5038131;28;20043;-74
2022/09/11 04:57:03;;;;;;;11.80;10.60;;;14.00;90.10;;;;;;5038523;28;20045;-76
2022/09/11 04:59:29;;;;;;;13.27;11.70;;;14.00;90.10;;;;;;5037864;28;20502;-72
2022/09/11 05:01:54;;;;;;;12.75;11.20;;;14.00;90.00;;;;;;5037916;28;20038;-75
2022/09/11 05:04:20;;;;;;;12.07;10.70;;;14.00;90.00;;;;;;5037720;28;20072;-75
2022/09/11 05:06:49;;;;;;;12.27;11.00;;;14.00;89.90;;;;;;5038127;28;20075;-74
2022/09/11 05:09:16;;;;;;;12.73;11.45;;;14.00;89.80;;;;;;5038447;28;20372;-75
2022/09/11 05:11:42;;;;;;;12.40;10.38;;;13.90;89.80;;;;;;5037959;28;20047;-75
2022/09/11 05:14:08;;;;;;;12.50;11.30;;;13.90;89.90;;;;;;5038108;28;20047;-75
2022/09/11 05:16:35;;;;;;;11.05;10.02;;;13.90;89.80;;;;;;5021850;28;20403;-76
2022/09/11 05:19:02;;;;;;;12.45;11.15;;;13.90;89.80;;;;;;5038059;28;20450;-75
2022/09/11 05:21:29;;;;;;;12.43;11.20;;;13.90;89.80;;;;;;5037601;28;20111;-74
2022/09/11 05:23:59;;;;;;;14.90;12.80;;;13.90;89.80;;;;;;5038137;28;20085;-73
2022/09/11 05:26:28;;;;;;;14.80;12.48;;;13.90;89.80;;;;;;5021822;28;20047;-76
2022/09/11 05:28:55;;;;;;;18.08;13.70;;;14.00;89.80;;;;;;5021304;28;20047;-72
2022/09/11 05:31:22;;;;;;;15.55;14.10;;;14.00;90.00;;;;;;5021201;28;20054;-74
2022/09/11 05:33:48;;;;;;;17.25;15.55;;;14.00;90.20;;;;;;5037984;28;20563;-75
2022/09/11 05:36:15;;;;;;;17.83;14.55;;;14.10;90.30;;;;;;5041362;28;20395;-73
2022/09/11 05:38:41;;;;;;;15.63;14.13;;;14.10;90.40;;;;;;5025217;28;20043;-75
2022/09/11 05:41:10;;;;;;;15.10;13.70;;;14.20;90.40;;;;;;5041770;28;20078;-74
2022/09/11 05:43:37;;;;;;;16.05;14.45;;;14.20;90.50;;;;;;5041979;28;20047;-76
2022/09/11 05:46:03;;;;;;;15.35;13.82;;;14.30;90.50;;;;;;5041666;28;20089;-75
2022/09/11 05:48:31;;;;;;;19.00;14.55;;;14.30;90.50;;;;;;5041560;28;20042;-73
2022/09/11 05:50:59;;;;;;;16.73;15.00;;;14.30;90.60;;;;;;5041741;28;20104;-75
2022/09/11 05:53:32;;;;;;;16.13;14.40;;;14.40;90.60;;;;;;5041835;28;20442;-74
2022/09/11 05:56:05;;;;;;;17.35;14.68;;;14.40;90.70;;;;;;5041417;28;20043;-76
2022/09/11 05:58:31;;;;;;;15.43;13.82;;;14.50;90.80;;;;;;5041686;28;20054;-76
2022/09/11 06:01:11;;;;;;;15.45;13.77;;;14.50;90.70;;;;;;5041448;28;20134;-74
2022/09/11 06:03:38;;;;;;;15.75;13.35;;;14.50;90.70;;;;;;5041365;28;20047;-75
2022/09/11 06:06:06;;;;;;;15.05;13.57;;;14.50;90.70;;;;;;5041231;28;20483;-75
2022/09/11 06:08:35;;;;;;;16.15;14.52;;;14.50;90.70;;;;;;5024674;28;20043;-76
2022/09/11 06:11:04;;;;;;;18.67;16.13;;;14.50;90.70;;;;;;5024731;28;20100;-78
2022/09/11 06:13:33;;;;;;;18.30;14.73;;;14.60;90.60;;;;;;5041325;28;20046;-74
2022/09/11 06:15:59;;;;;;;15.60;13.95;;;14.60;90.80;;;;;;5041398;28;20431;-76
2022/09/11 06:18:25;;;;;;;16.55;14.82;;;14.70;90.90;;;;;;5040989;28;20508;-75
2022/09/11 06:21:02;;;;;;;19.92;16.20;;;14.70;91.10;;;;;;5041244;28;20058;-75
2022/09/11 06:23:28;;;;;;;16.25;14.55;;;14.70;91.10;;;;;;5040869;28;20070;-76
2022/09/11 06:26:02;;;;;;;15.10;13.50;;;14.80;90.90;;;;;;5040971;28;20478;-74
2022/09/11 06:28:28;;;;;;;14.30;12.80;;;14.80;91.10;;;;;;5040947;28;20046;-74
2022/09/11 06:30:53;;;;;;;16.30;14.60;;;14.80;91.00;;;;;;5040769;28;20058;-78
2022/09/11 06:33:20;;;;;;;16.60;13.43;;;14.90;90.90;;;;;;5040770;28;20043;-75
2022/09/11 06:36:00;;;;;;;15.75;14.05;;;14.90;91.10;;;;;;5040941;28;20043;-77
2022/09/11 06:38:26;;;;;;;19.95;15.13;;;15.00;91.10;;;;;;5041204;28;20383;-74
2022/09/11 06:40:54;;;;;;;17.17;14.00;;;15.00;91.20;;;;;;5040861;28;20388;-74
2022/09/11 06:43:20;;;;;;;19.27;17.25;;;15.10;91.20;;;;;;5039881;28;20093;-76
2022/09/11 06:45:49;;;;;;;17.27;15.30;;;15.20;91.10;;;;;;5040600;28;20050;-77
2022/09/11 06:48:18;;;;;;;14.88;13.38;;;15.30;91.20;;;;;;5040442;28;20079;-74
2022/09/11 06:50:44;;;;;;;13.85;12.38;;;15.30;91.10;;;;;;5040316;28;20047;-77
2022/09/11 06:53:11;;;;;;;18.17;16.27;;;15.40;91.00;;;;;;5040500;28;20047;-75
2022/09/11 06:55:38;;;;;;;17.13;15.18;;;15.50;91.10;;;;;;5040467;28;20046;-76
2022/09/11 06:58:04;;;;;;;17.55;14.98;;;15.60;91.10;;;;;;5040574;28;20043;-75
2022/09/11 07:00:30;;;;;;;13.15;11.88;;;15.70;91.10;;;;;;5040471;28;20125;-76
2022/09/11 07:02:56;;;;;;;15.73;14.02;;;15.70;91.10;;;;;;5023709;28;20129;-76
2022/09/11 07:05:23;;;;;;;12.02;10.82;;;15.80;91.00;;;;;;5040529;28;20047;-76
2022/09/11 07:07:51;;;;;;;14.30;12.68;;;16.00;90.90;;;;;;5040132;28;20522;-78
2022/09/11 07:10:17;;;;;;;14.07;12.65;;;16.00;90.90;;;;;;5040256;28;20426;-76
2022/09/11 07:12:43;;;;;;;14.30;11.32;;;16.20;90.80;;;;;;5040289;28;20050;-78
2022/09/11 07:15:09;;;;;;;12.82;11.52;;;16.20;90.70;;;;;;5040141;28;20047;-75
2022/09/11 07:17:35;;;;;;;15.25;13.50;;;16.40;90.80;;;;;;5040107;28;20050;-76
2022/09/11 07:20:06;;;;;;;14.63;12.93;;;16.50;90.50;;;;;;5040160;28;20514;-75
2022/09/11 07:22:33;;;;;;;13.55;12.13;;;16.60;90.50;;;;;;5039947;28;20112;-74
2022/09/11 07:24:59;;;;;;;12.48;11.23;;;16.70;90.40;;;;;;5039985;28;20055;-75
2022/09/11 07:27:30;;;;;;;14.02;9.70;;;16.80;90.20;;;;;;5039810;28;20043;-72
2022/09/11 07:29:56;;;;;;;13.07;10.45;;;16.90;90.00;;;;;;5039881;28;20053;-74
2022/09/11 07:32:22;;;;;;;11.18;10.10;;;17.00;89.30;;;;;;5023300;28;20165;-75
2022/09/11 07:34:48;;;;;;;14.40;11.73;;;17.10;89.00;;;;;;5039952;28;20121;-73
2022/09/11 07:37:14;;;;;;;12.18;9.63;;;17.20;88.90;;;;;;5023498;28;20038;-75
2022/09/11 07:39:40;;;;;;;11.15;10.10;;;17.30;88.60;;;;;;5040307;28;20441;-75
2022/09/11 07:42:06;;;;;;;12.40;10.52;;;17.40;88.50;;;;;;5040605;28;20053;-76
2022/09/11 07:44:33;;;;;;;9.95;8.77;;;17.50;88.20;;;;;;5023308;28;20491;-74
2022/09/11 07:46:59;;;;;;;9.68;8.50;;;17.50;87.80;;;;;;5040505;28;20046;-77
2022/09/11 07:49:26;;;;;;;11.82;10.70;;;17.70;87.70;;;;;;5023677;28;20088;-76
2022/09/11 07:51:53;;;;;;;10.93;9.75;;;17.70;87.20;;;;;;5040276;28;20148;-75
2022/09/11 07:54:20;;;;;;;9.68;8.73;;;17.90;87.20;;;;;;5039682;28;20054;-72
2022/09/11 07:56:46;;;;;;;10.40;9.30;;;18.00;87.10;;;;;;5007389;28;20399;-76
2022/09/11 07:59:12;;;;;;;10.02;9.02;;;18.00;86.90;;;;;;5038753;28;20050;-75
2022/09/11 08:01:38;;;;;;;9.23;8.18;;;18.10;86.60;;;;;;5039939;28;20051;-74
2022/09/11 08:04:10;;;;;;;12.60;10.93;;;18.20;86.20;;;;;;5040034;28;20376;-74
2022/09/11 08:06:37;;;;;;;12.43;10.52;;;18.30;85.60;;;;;;5039557;28;20061;-75
2022/09/11 08:09:09;;;;;;;15.15;11.13;;;18.30;85.00;;;;;;5039356;28;20074;-74
2022/09/11 08:11:47;;;;;;;13.90;11.82;;;18.50;85.00;;;;;;5039439;28;20043;-74
2022/09/11 08:14:16;;;;;;;12.43;10.10;;;18.60;84.90;;;;;;5039597;28;20035;-74
2022/09/11 08:16:42;;;;;;;11.20;7.20;;;18.70;84.40;;;;;;5038758;28;20031;-75
2022/09/11 08:19:15;;;;;;;14.02;10.50;;;18.70;84.10;;;;;;5039014;28;20178;-73
2022/09/11 08:21:41;;;;;;;11.15;9.88;;;18.80;83.00;;;;;;5038849;28;20066;-74
2022/09/11 08:24:07;;;;;;;11.38;9.40;;;18.90;83.20;;;;;;5039203;28;20053;-75
2022/09/11 08:26:35;;;;;;;10.98;9.80;;;18.90;83.00;;;;;;5022111;28;20042;-76
2022/09/11 08:29:01;;;;;;;10.65;9.10;;;18.90;83.30;;;;;;5038576;28;20092;-76
2022/09/11 08:31:28;;;;;;;9.52;8.40;;;18.90;82.70;;;;;;5038642;28;20104;-74
2022/09/11 08:33:55;;;;;;;8.40;6.00;;;18.90;83.10;;;;;;5038539;28;20042;-77
2022/09/11 08:36:21;;;;;;;7.72;5.97;;;18.90;83.00;;;;;;5038826;28;20043;-75
2022/09/11 08:38:47;;;;;;;9.02;7.00;;;18.90;83.10;;;;;;5038775;28;20039;-75
2022/09/11 08:41:16;;;;;;;6.95;5.30;;;18.90;83.00;;;;;;5022297;28;20505;-73
2022/09/11 08:44:08;;;;;;;6.90;5.45;;;18.90;82.80;;;;;;5038442;28;20047;-74
2022/09/11 08:46:37;;;;;;;7.72;5.15;;;19.00;82.80;;;;;;5027302;28;20062;-72
2022/09/11 08:49:09;;;;;;;7.18;5.53;;;19.10;82.70;;;;;;5026115;28;20074;-76
2022/09/11 08:51:36;;;;;;;9.35;6.18;;;19.30;82.00;;;;;;5019089;28;20585;-73
2022/09/11 08:54:02;;;;;;;5.82;4.70;;;19.40;81.60;;;;;;5020002;28;20047;-74
2022/09/11 08:56:30;;;;;;;5.03;4.40;;;19.70;81.40;;;;;;5020550;28;20089;-75
2022/09/11 08:59:33;;;;;;;5.55;4.35;;;19.80;81.10;;;;;;5003747;28;20047;-76
2022/09/11 09:02:11;;;;;;;6.10;4.22;;;19.90;79.40;;;;;;5020899;28;20031;-76
2022/09/11 09:05:13;;;;;;;4.88;4.32;;;20.00;79.90;;;;;;5025789;28;20494;-76
2022/09/11 09:07:57;;;;;;;5.97;3.63;;;20.00;79.80;;;;;;5022096;28;20062;-74
2022/09/11 09:10:51;;;;;;;5.93;3.50;;;20.10;79.50;;;;;;5016533;28;20043;-76
2022/09/11 09:14:04;;;;;;;4.95;4.20;;;20.20;79.00;;;;;;5022201;28;20506;-76
2022/09/11 09:16:42;;;;;;;5.63;3.80;;;20.30;78.00;;;;;;4991124;28;20494;-76
2022/09/11 09:19:14;;;;;;;7.25;3.90;;;20.40;77.50;;;;;;5003978;28;20399;-75
2022/09/11 09:22:04;;;;;;;6.22;3.60;;;20.60;77.00;;;;;;5023222;28;20063;-76
2022/09/11 09:24:38;;;;;;;5.45;3.70;;;20.70;76.20;;;;;;5028624;28;20051;-75
2022/09/11 09:27:05;;;;;;;4.78;3.38;;;20.80;75.10;;;;;;5019593;28;20047;-74
2022/09/11 09:29:36;;;;;;;4.22;3.65;;;20.90;74.90;;;;;;5037659;28;20043;-77
2022/09/11 09:32:11;;;;;;;5.18;3.53;;;21.00;75.10;;;;;;5037784;28;20509;-77
2022/09/11 09:34:41;;;;;;;3.55;3.00;;;21.10;74.40;;;;;;5037877;28;20043;-74
2022/09/11 09:37:19;;;;;;;5.07;2.97;;;21.20;74.20;;;;;;5037857;28;20127;-75
2022/09/11 09:39:46;;;;;;;6.32;3.20;;;21.30;73.20;;;;;;5037791;28;20487;-77
2022/09/11 09:42:23;;;;;;;3.08;2.70;;;21.40;73.00;;;;;;5038235;28;20368;-78
2022/09/11 09:44:49;;;;;;;4.13;2.80;;;21.50;72.10;;;;;;5038113;28;20077;-76
2022/09/11 09:47:16;;;;;;;7.78;3.65;;;21.60;72.30;;;;;;5037612;28;20035;-77
2022/09/11 09:49:42;;;;;;;4.50;2.65;;;21.70;71.80;;;;;;5037622;28;20049;-74
2022/09/11 09:52:19;;;;;;;3.92;2.70;;;21.90;72.10;;;;;;5037585;28;20117;-78
2022/09/11 09:54:58;;;;;;;3.55;3.20;;;22.10;72.10;;;;;;5037610;28;20050;-77
2022/09/11 09:57:29;;;;;;;4.30;2.63;;;22.30;71.00;;;;;;5037876;28;20081;-79
2022/09/11 10:00:10;;;;;;;3.72;2.13;;;22.40;69.50;;;;;;5037872;28;20525;-78
2022/09/11 10:02:38;;;;;;;4.63;2.42;;;22.50;68.80;;;;;;5038091;28;20050;-78
2022/09/11 10:05:26;;;;;;;4.88;2.25;;;22.40;68.60;;;;;;5037494;28;20047;-78
2022/09/11 10:07:55;;;;;;;4.13;3.10;;;22.30;68.50;;;;;;5030485;28;20035;-76
2022/09/11 10:10:36;;;;;;;4.32;2.63;;;22.10;69.20;;;;;;5037666;28;20383;-76
2022/09/11 10:13:24;;;;;;;3.28;2.70;;;21.90;69.10;;;;;;5037715;28;20054;-75
2022/09/11 10:15:52;;;;;;;4.15;2.78;;;21.80;69.40;;;;;;5037566;28;20043;-75
2022/09/11 10:18:40;;;;;;;5.05;3.08;;;21.60;70.00;;;;;;5037372;28;20086;-75
2022/09/11 10:21:14;;;;;;;2.95;2.53;;;21.60;70.40;;;;;;5021278;28;20043;-76
2022/09/11 10:23:55;;;;;;;4.15;2.70;;;21.60;70.10;;;;;;5054489;28;20572;-77
2022/09/11 10:26:30;;;;;;;3.63;2.70;;;21.70;69.90;;;;;;5054658;28;20094;-80
2022/09/11 10:29:16;;;;;;;3.30;2.30;;;21.80;69.90;;;;;;5054606;28;20040;-76
2022/09/11 10:31:49;;;;;;;3.78;2.38;;;21.90;69.40;;;;;;5053979;28;20164;-77
2022/09/11 10:34:21;;;;;;;3.05;2.20;;;22.20;69.40;;;;;;5054528;28;20041;-76
2022/09/11 10:37:00;;;;;;;4.03;2.20;;;22.30;68.90;;;;;;5054748;28;20052;-77
2022/09/11 10:39:27;;;;;;;3.03;2.13;;;22.50;67.30;;;;;;5054428;28;20036;-78
2022/09/11 10:41:58;;;;;;;3.45;2.08;;;22.60;67.10;;;;;;5037736;28;20040;-78
2022/09/11 10:44:26;;;;;;;3.05;2.00;;;22.90;66.40;;;;;;5054475;28;20396;-77
2022/09/11 10:47:05;;;;;;;1.98;1.48;;;23.00;66.00;;;;;;5037715;28;20102;-77
2022/09/11 10:49:32;;;;;;;5.38;2.42;;;23.10;64.40;;;;;;5054546;28;20068;-77
2022/09/11 10:52:17;;;;;;;2.55;1.88;;;23.30;64.10;;;;;;5054192;28;20049;-76
2022/09/11 10:55:14;;;;;;;2.25;1.40;;;23.30;64.10;;;;;;5054318;28;20080;-77
2022/09/11 10:57:49;;;;;;;3.58;1.70;;;23.50;64.00;;;;;;5054146;28;20048;-79
2022/09/11 11:00:21;;;;;;;6.15;2.15;;;23.80;63.90;;;;;;5037467;28;20106;-78
2022/09/11 11:02:57;;;;;;;3.33;1.80;;;23.90;63.10;;;;;;5052245;28;20048;-77
2022/09/11 11:05:43;;;;;;;3.28;2.50;;;24.10;61.90;;;;;;5052286;28;20493;-78
2022/09/11 11:08:27;;;;;;;4.38;2.55;;;24.20;62.30;;;;;;5052490;28;20124;-78
2022/09/11 11:11:16;;;;;;;4.05;2.88;;;24.40;62.40;;;;;;5053503;28;20099;-77
2022/09/11 11:14:03;;;;;;;4.63;2.50;;;24.40;62.10;;;;;;5053508;28;20041;-74
2022/09/11 11:16:41;;;;;;;4.03;2.22;;;24.20;62.50;;;;;;5052817;28;20080;-76
2022/09/11 11:19:31;;;;;;;3.58;2.33;;;23.80;63.50;;;;;;5053707;28;20569;-74
2022/09/11 11:22:17;;;;;;;5.57;2.30;;;23.60;64.00;;;;;;5053383;28;20053;-74
2022/09/11 11:25:16;;;;;;;3.05;2.55;;;23.30;65.00;;;;;;5052695;28;20497;-75
2022/09/11 11:28:15;;;;;;;3.90;2.50;;;23.10;65.60;;;;;;5053470;28;20496;-75
2022/09/11 11:30:55;;;;;;;3.90;2.30;;;22.90;66.30;;;;;;5053459;28;20405;-74
2022/09/11 11:33:41;;;;;;;5.30;2.63;;;22.60;66.90;;;;;;5053433;28;20048;-75
2022/09/11 11:36:22;;;;;;;3.72;2.70;;;22.50;67.00;;;;;;5053574;28;20140;-75
2022/09/11 11:38:59;;;;;;;3.38;2.35;;;22.40;67.20;;;;;;5053369;28;20395;-74
2022/09/11 11:41:33;;;;;;;2.55;2.17;;;22.40;67.50;;;;;;5053104;28;20040;-76
2022/09/11 11:44:02;;;;;;;2.30;2.10;;;22.40;67.80;;;;;;5053182;28;20041;-74
2022/09/11 11:46:36;;;;;;;4.10;2.42;;;22.40;67.60;;;;;;5053499;28;20053;-76
2022/09/11 11:49:09;;;;;;;4.53;2.90;;;22.40;67.80;;;;;;5053101;28;20049;-75
2022/09/11 11:51:47;;;;;;;3.03;2.73;;;22.40;68.00;;;;;;5054319;28;20048;-76
2022/09/11 11:54:23;;;;;;;3.40;2.80;;;22.40;67.40;;;;;;5053121;28;20072;-74
2022/09/11 11:57:06;;;;;;;3.45;2.67;;;22.40;67.40;;;;;;5053309;28;20052;-74
2022/09/11 11:59:45;;;;;;;6.00;2.90;;;22.40;67.90;;;;;;5053118;28;20514;-74
2022/09/11 12:02:20;;;;;;;4.03;3.10;;;22.30;68.20;;;;;;5052834;28;20557;-74
2022/09/11 12:05:01;;;;;;;5.68;2.75;;;22.30;67.50;;;;;;5052850;28;20529;-74
2022/09/11 12:07:29;;;;;;;4.85;2.80;;;22.20;67.30;;;;;;5053013;28;20443;-73
2022/09/11 12:09:57;;;;;;;3.42;2.63;;;22.20;68.20;;;;;;5052949;28;22016;-75
2022/09/11 12:12:29;;;;;;;3.63;2.40;;;22.10;68.60;;;;;;5052565;28;20272;-74
2022/09/11 12:15:04;;;;;;;5.72;2.60;;;22.00;68.40;;;;;;5052548;28;20045;-73
2022/09/11 12:17:32;;;;;;;3.17;2.35;;;22.00;68.40;;;;;;5052835;28;20076;-74
2022/09/11 12:20:10;;;;;;;2.85;1.98;;;22.00;68.20;;;;;;5052619;28;20394;-75
2022/09/11 12:22:40;;;;;;;3.50;2.17;;;22.50;67.60;;;;;;5052100;28;20061;-73
2022/09/11 12:25:18;;;;;;;3.85;2.25;;;23.00;66.80;;;;;;5052342;28;20540;-75
2022/09/11 12:27:51;;;;;;;3.97;2.10;;;23.50;65.00;;;;;;5052277;28;20091;-75
2022/09/11 12:30:17;;;;;;;2.47;1.85;;;24.10;64.00;;;;;;5052192;28;20045;-75
2022/09/11 12:32:45;;;;;;;2.17;1.67;;;24.40;63.60;;;;;;5036087;28;20055;-75
2022/09/11 12:35:28;;;;;;;2.92;2.17;;;24.40;61.20;;;;;;5052224;28;20129;-76
2022/09/11 12:38:00;;;;;;;3.33;2.05;;;24.20;61.80;;;;;;5052505;28;20041;-74
2022/09/11 12:40:40;;;;;;;3.20;1.80;;;24.00;61.50;;;;;;5052126;28;20124;-74
2022/09/11 12:43:19;;;;;;;2.72;2.00;;;23.70;62.10;;;;;;5052296;28;20049;-74
2022/09/11 12:45:48;;;;;;;3.15;2.10;;;23.40;63.60;;;;;;5051419;28;20059;-73
2022/09/11 12:48:21;;;;;;;3.17;2.22;;;23.20;64.90;;;;;;5052174;28;20504;-76
2022/09/11 12:50:54;;;;;;;4.88;2.55;;;23.10;65.90;;;;;;5051925;28;20128;-75
2022/09/11 12:53:30;;;;;;;5.50;2.78;;;23.00;66.60;;;;;;5051894;28;20048;-76
2022/09/11 12:56:07;;;;;;;4.38;2.30;;;22.90;66.80;;;;;;5051932;28;20567;-74
2022/09/11 12:58:40;;;;;;;3.53;2.28;;;22.80;67.20;;;;;;5051877;28;20509;-74
2022/09/11 13:01:09;;;;;;;2.58;2.38;;;22.70;67.50;;;;;;5052019;28;20037;-75
2022/09/11 13:03:37;;;;;;;3.72;2.45;;;22.60;67.70;;;;;;5052003;28;20465;-74